Portada
METAR-TAF:

METAR-TAF

Aeroports :

Aeroport Internacional de Xangai-Hongqiao

Xangai-Hongqiao, Xina

latitud: 31-10N, longitud: 121-26E, altitud: 7 m

Observació

L'informe es va fer fa 44 minuts, a les 01:00 UTC
Vent 6 kt del Sud/Sud-Est, variant entre Est/Sud-Est i Sud
Temperatura 18°C
Humitat 56%
Pressió 1024 hPa
Visibilitat 10 km o més
sense núvols per sota de 1500 mi sense presència de cumulonimbus.

METAR: ZSSS 250100Z 15003MPS 120V190 CAVOK 18/09 Q1024 NOSIG

Hora: 09:44 (01:44 UTC)

Pronòstic

L'informe es va fer fa 4 hores i 35 minuts, a les 21:09 UTC
Pronòstic vàlid del 25 a les 00 UTC al 25 a les 24 UTC
Vent 8 kt del Est/Sud-Est
Visibilitat 10 km o més
Núvols disperses a una alçada de 3000 ft

TAF: ZSSS 242109Z 2500/2524 11004MPS 9999 SCT030 TX20/2506Z TN14/2521Z

Observacions i pronòstics meteorològics de més de 4000 aeroports (METAR i TAF).

Les estacions disponibles són els punts grocs i vermells al mapa.

Posi el ratolí al punt desitjat per veure el nom de l'estació.

Feu clic per veure les observacions i els pronòstics meteorològics.

Per canviar el mapa: feu clic els botons verds amb una creu de color negre per apropar; al botó verd amb un guió per allunyar la imatge; o en les fletxes verdes per a mapes adjacents.


METAR-TAF: